createdAt,value
2019-03-25T00:00:50.625Z,6.90
2019-03-25T00:01:39.068Z,6.90
2019-03-25T00:02:16.479Z,6.90
2019-03-25T00:02:52.655Z,6.90
2019-03-25T00:03:29.151Z,6.90
2019-03-25T00:04:05.604Z,7.00
2019-03-25T00:04:41.683Z,7.00
2019-03-25T00:05:17.877Z,6.90
2019-03-25T00:05:53.921Z,6.90
2019-03-25T00:06:29.947Z,6.90
2019-03-25T00:07:05.963Z,7.00
2019-03-25T00:07:41.990Z,7.00
2019-03-25T00:08:18.023Z,7.00
2019-03-25T00:09:04.834Z,6.90
2019-03-25T00:09:31.642Z,6.90
2019-03-25T00:10:08.807Z,7.00
2019-03-25T00:10:44.963Z,6.90
2019-03-25T00:11:21.009Z,6.90
2019-03-25T00:11:57.244Z,6.90
2019-03-25T00:12:33.284Z,6.90
2019-03-25T00:13:09.359Z,6.90
2019-03-25T00:13:45.481Z,7.00
2019-03-25T00:14:21.585Z,6.90
2019-03-25T00:14:57.631Z,6.90
2019-03-25T00:15:33.911Z,6.90
2019-03-25T00:16:10.021Z,6.90
2019-03-25T00:16:46.161Z,6.90
2019-03-25T00:17:22.443Z,6.90
2019-03-25T00:17:58.648Z,6.80
2019-03-25T00:18:34.860Z,6.80
2019-03-25T00:19:10.780Z,6.80
2019-03-25T00:19:46.839Z,6.80
2019-03-25T00:20:22.971Z,6.80
2019-03-25T00:20:59.410Z,6.70
2019-03-25T00:21:35.487Z,6.70
2019-03-25T00:22:11.506Z,6.60
2019-03-25T00:22:47.620Z,6.60
2019-03-25T00:23:23.720Z,6.60
2019-03-25T00:23:59.841Z,6.60
2019-03-25T00:24:39.116Z,6.60
2019-03-25T00:25:13.474Z,6.60
2019-03-25T00:25:49.546Z,6.60
2019-03-25T00:26:25.731Z,6.70
2019-03-25T00:27:01.942Z,6.70
2019-03-25T00:27:38.100Z,6.70
2019-03-25T00:28:14.122Z,6.70
2019-03-25T00:28:50.122Z,6.70
2019-03-25T00:29:26.282Z,6.70
2019-03-25T00:30:02.202Z,6.70
2019-03-25T00:30:38.359Z,6.70
2019-03-25T00:31:14.381Z,6.70
2019-03-25T00:31:51.159Z,6.70
2019-03-25T00:32:27.199Z,6.70
2019-03-25T00:33:03.286Z,6.70
2019-03-25T00:33:39.338Z,6.80
2019-03-25T00:34:15.366Z,6.70
2019-03-25T00:34:51.571Z,6.80
2019-03-25T00:35:27.713Z,6.80
2019-03-25T00:36:03.783Z,6.80
2019-03-25T00:36:39.957Z,6.80
2019-03-25T00:37:16.130Z,6.80
2019-03-25T00:37:52.021Z,6.80
2019-03-25T00:38:28.077Z,6.80
2019-03-25T00:39:04.401Z,6.80
2019-03-25T00:39:40.382Z,6.90
2019-03-25T00:40:16.509Z,6.90
2019-03-25T00:40:52.541Z,6.90
2019-03-25T00:41:29.522Z,6.90
2019-03-25T00:42:05.471Z,6.90
2019-03-25T00:42:41.709Z,6.90
2019-03-25T00:43:17.781Z,6.90
2019-03-25T00:43:54.082Z,6.90
2019-03-25T00:44:30.169Z,6.90
2019-03-25T00:45:06.425Z,6.90
2019-03-25T00:45:42.579Z,6.90
2019-03-25T00:46:18.739Z,6.90
2019-03-25T00:46:54.879Z,6.90
2019-03-25T00:47:30.927Z,6.90
2019-03-25T00:48:07.223Z,6.90
2019-03-25T00:48:43.440Z,6.80
2019-03-25T00:49:19.460Z,6.80
2019-03-25T00:49:55.598Z,6.80
2019-03-25T00:50:31.845Z,6.80
2019-03-25T00:51:07.906Z,6.80
2019-03-25T00:51:43.936Z,6.80
2019-03-25T00:52:20.053Z,6.80
2019-03-25T00:52:56.292Z,6.70
2019-03-25T00:53:32.521Z,6.80
2019-03-25T00:54:08.589Z,6.80
2019-03-25T00:54:49.947Z,6.80
2019-03-25T00:55:22.482Z,6.80
2019-03-25T00:55:58.803Z,6.80
2019-03-25T00:56:34.759Z,6.80
2019-03-25T00:57:10.799Z,6.70
2019-03-25T00:57:46.799Z,6.80
2019-03-25T00:58:23.031Z,6.80
2019-03-25T00:58:59.427Z,6.70
2019-03-25T00:59:35.700Z,6.70
2019-03-25T01:00:12.262Z,6.70
2019-03-25T01:00:48.306Z,6.70
2019-03-25T01:01:24.370Z,6.80
2019-03-25T01:02:00.437Z,6.70
2019-03-25T01:02:36.687Z,6.70
2019-03-25T01:03:13.185Z,6.70
2019-03-25T01:03:49.417Z,6.70
2019-03-25T01:04:25.612Z,6.70
2019-03-25T01:05:01.718Z,6.70
2019-03-25T01:05:37.998Z,6.70
2019-03-25T01:06:14.177Z,6.70
2019-03-25T01:06:50.225Z,6.60
2019-03-25T01:07:26.258Z,6.60
2019-03-25T01:08:02.445Z,6.60
2019-03-25T01:08:38.640Z,6.50
2019-03-25T01:09:14.707Z,6.50
2019-03-25T01:09:50.697Z,6.50
2019-03-25T01:10:27.379Z,6.50
2019-03-25T01:11:03.926Z,6.50
2019-03-25T01:11:48.715Z,6.40
2019-03-25T01:12:17.933Z,6.40
2019-03-25T01:12:54.185Z,6.40
2019-03-25T01:13:30.284Z,6.40
2019-03-25T01:14:06.344Z,6.40
2019-03-25T01:14:42.552Z,6.40
2019-03-25T01:15:18.627Z,6.40
2019-03-25T01:15:54.601Z,6.40
2019-03-25T01:16:30.781Z,6.30
2019-03-25T01:17:07.079Z,6.30
2019-03-25T01:17:43.219Z,6.30
2019-03-25T01:18:19.322Z,6.30
2019-03-25T01:18:55.377Z,6.30
2019-03-25T01:19:31.538Z,6.30
2019-03-25T01:20:07.977Z,6.30
2019-03-25T01:20:44.297Z,6.30
2019-03-25T01:21:20.504Z,6.30
2019-03-25T01:21:56.637Z,6.30
2019-03-25T01:22:33.238Z,6.30
2019-03-25T01:23:09.457Z,6.40
2019-03-25T01:23:45.738Z,6.40
2019-03-25T01:24:21.837Z,6.30
2019-03-25T01:25:02.081Z,6.30
2019-03-25T01:25:35.547Z,6.30
2019-03-25T01:26:11.745Z,6.30
2019-03-25T01:26:47.923Z,6.30
2019-03-25T01:27:24.100Z,6.30
2019-03-25T01:28:00.179Z,6.30
2019-03-25T01:28:36.239Z,6.30
2019-03-25T01:29:12.199Z,6.30
2019-03-25T01:29:48.179Z,6.30
2019-03-25T01:30:24.230Z,6.30
2019-03-25T01:31:00.419Z,6.20
2019-03-25T01:31:36.477Z,6.20
2019-03-25T01:32:12.530Z,6.20
2019-03-25T01:32:48.524Z,6.20
2019-03-25T01:33:24.645Z,6.20
2019-03-25T01:34:00.758Z,6.20
2019-03-25T01:34:37.001Z,6.20
2019-03-25T01:35:13.217Z,6.20
2019-03-25T01:35:49.397Z,6.10
2019-03-25T01:36:25.562Z,6.10
2019-03-25T01:37:01.638Z,6.10
2019-03-25T01:37:37.700Z,6.10
2019-03-25T01:38:13.690Z,6.10
2019-03-25T01:38:49.992Z,6.10
2019-03-25T01:39:26.112Z,6.10
2019-03-25T01:40:02.444Z,6.10
2019-03-25T01:40:38.665Z,6.10
2019-03-25T01:41:14.699Z,6.10
2019-03-25T01:41:50.859Z,6.10
2019-03-25T01:42:26.987Z,6.20
2019-03-25T01:43:03.179Z,6.10
2019-03-25T01:43:39.259Z,6.10
2019-03-25T01:44:15.341Z,6.20
2019-03-25T01:44:51.428Z,6.20
2019-03-25T01:45:27.599Z,6.20
2019-03-25T01:46:03.827Z,6.20
2019-03-25T01:46:39.918Z,6.10
2019-03-25T01:47:15.977Z,6.20
2019-03-25T01:47:51.983Z,6.20
2019-03-25T01:48:28.118Z,6.20
2019-03-25T01:49:04.177Z,6.20
2019-03-25T01:49:40.218Z,6.20
2019-03-25T01:50:16.161Z,6.20
2019-03-25T01:50:52.219Z,6.20
2019-03-25T01:51:28.397Z,6.30
2019-03-25T01:52:04.410Z,6.30
2019-03-25T01:52:40.391Z,6.20
2019-03-25T01:53:16.463Z,6.20
2019-03-25T01:53:52.679Z,6.30
2019-03-25T01:54:28.784Z,6.20
2019-03-25T01:55:13.365Z,6.30
2019-03-25T01:55:42.806Z,6.30
2019-03-25T01:56:18.906Z,6.30
2019-03-25T01:56:55.050Z,6.30
2019-03-25T01:57:31.240Z,6.30
2019-03-25T01:58:07.419Z,6.30
2019-03-25T01:58:43.469Z,6.30
2019-03-25T01:59:19.619Z,6.20
2019-03-25T01:59:55.747Z,6.20
2019-03-25T02:00:32.005Z,6.20
2019-03-25T02:01:08.457Z,6.20
2019-03-25T02:01:44.618Z,6.20
2019-03-25T02:02:20.805Z,6.20
2019-03-25T02:02:56.701Z,6.20
2019-03-25T02:03:32.746Z,6.20
2019-03-25T02:04:08.806Z,6.20
2019-03-25T02:04:44.939Z,6.10
2019-03-25T02:05:21.137Z,6.10
2019-03-25T02:05:57.344Z,6.10
2019-03-25T02:06:33.449Z,6.10
2019-03-25T02:07:09.385Z,6.10
2019-03-25T02:07:45.594Z,6.10
2019-03-25T02:08:21.542Z,6.10
2019-03-25T02:08:57.921Z,6.10
2019-03-25T02:09:34.086Z,6.10
2019-03-25T02:10:10.546Z,6.10
2019-03-25T02:10:46.518Z,6.10
2019-03-25T02:11:22.603Z,6.10
2019-03-25T02:11:58.939Z,6.10
2019-03-25T02:12:35.079Z,6.10
2019-03-25T02:13:11.171Z,6.10
2019-03-25T02:13:47.561Z,6.10
2019-03-25T02:14:23.398Z,6.10
2019-03-25T02:14:59.487Z,6.10
2019-03-25T02:15:35.943Z,6.10
2019-03-25T02:16:11.959Z,6.10
2019-03-25T02:16:48.219Z,6.10
2019-03-25T02:17:24.304Z,6.10
2019-03-25T02:18:00.477Z,6.10
2019-03-25T02:18:36.878Z,6.10
2019-03-25T02:19:13.043Z,6.10
2019-03-25T02:19:49.259Z,6.10
2019-03-25T02:20:26.591Z,6.10
2019-03-25T02:21:04.641Z,6.10
2019-03-25T02:21:41.007Z,6.10
2019-03-25T02:22:17.319Z,6.10
2019-03-25T02:22:53.539Z,6.10
2019-03-25T02:23:30.281Z,6.10
2019-03-25T02:24:06.480Z,6.10
2019-03-25T02:24:42.767Z,6.10
2019-03-25T02:25:25.229Z,6.10
2019-03-25T02:25:56.760Z,6.20
2019-03-25T02:26:33.040Z,6.20
2019-03-25T02:27:09.125Z,6.20
2019-03-25T02:27:45.131Z,6.20
2019-03-25T02:28:21.300Z,6.10
2019-03-25T02:28:57.460Z,6.10
2019-03-25T02:29:33.699Z,6.10
2019-03-25T02:30:10.031Z,6.10
2019-03-25T02:30:46.064Z,6.00
2019-03-25T02:31:22.143Z,6.00
2019-03-25T02:31:58.357Z,6.00
2019-03-25T02:32:34.485Z,6.00
2019-03-25T02:33:10.488Z,6.00
2019-03-25T02:33:46.822Z,6.00
2019-03-25T02:34:22.771Z,6.00
2019-03-25T02:34:58.741Z,6.00
2019-03-25T02:35:34.782Z,6.00
2019-03-25T02:36:10.770Z,6.00
2019-03-25T02:36:46.849Z,6.00
2019-03-25T02:37:22.841Z,6.00
2019-03-25T02:37:59.166Z,6.00
2019-03-25T02:38:35.325Z,5.90
2019-03-25T02:39:11.482Z,5.90
2019-03-25T02:39:47.485Z,5.90
2019-03-25T02:40:23.663Z,5.90
2019-03-25T02:40:59.684Z,5.90
2019-03-25T02:41:35.643Z,5.90
2019-03-25T02:42:11.797Z,5.80
2019-03-25T02:42:47.965Z,5.80
2019-03-25T02:43:24.000Z,5.80
2019-03-25T02:44:00.179Z,5.80
2019-03-25T02:44:36.349Z,5.90
2019-03-25T02:45:12.803Z,5.90
2019-03-25T02:45:48.967Z,5.80
2019-03-25T02:46:25.360Z,5.90
2019-03-25T02:47:01.721Z,5.90
2019-03-25T02:47:37.899Z,5.80
2019-03-25T02:48:14.002Z,5.80
2019-03-25T02:48:50.183Z,5.80
2019-03-25T02:49:26.224Z,5.80
2019-03-25T02:50:02.686Z,5.80
2019-03-25T02:50:38.969Z,5.80
2019-03-25T02:51:15.023Z,5.80
2019-03-25T02:51:51.085Z,5.80
2019-03-25T02:52:27.043Z,5.80
2019-03-25T02:53:03.081Z,5.80
2019-03-25T02:53:39.043Z,5.80
2019-03-25T02:54:15.101Z,5.80
2019-03-25T02:54:51.470Z,5.80
2019-03-25T02:55:40.692Z,5.80
2019-03-25T02:56:06.066Z,5.80
2019-03-25T02:56:42.265Z,5.70
2019-03-25T02:57:18.421Z,5.70
2019-03-25T02:57:54.551Z,5.70
2019-03-25T02:58:31.105Z,5.70
2019-03-25T02:59:07.555Z,5.60
2019-03-25T02:59:43.544Z,5.60
2019-03-25T03:00:33.145Z,5.60
2019-03-25T03:01:09.243Z,5.60
2019-03-25T03:01:45.222Z,5.60
2019-03-25T03:02:21.302Z,5.60
2019-03-25T03:02:57.303Z,5.60
2019-03-25T03:03:33.342Z,5.60
2019-03-25T03:04:09.538Z,5.60
2019-03-25T03:04:45.822Z,5.60
2019-03-25T03:05:21.890Z,5.70
2019-03-25T03:05:57.822Z,5.70
2019-03-25T03:06:34.061Z,5.70
2019-03-25T03:07:10.006Z,5.70
2019-03-25T03:07:45.992Z,5.70
2019-03-25T03:08:22.194Z,5.60
2019-03-25T03:08:58.626Z,5.60
2019-03-25T03:09:34.724Z,5.60
2019-03-25T03:10:11.101Z,5.60
2019-03-25T03:10:47.303Z,5.60
2019-03-25T03:11:23.293Z,5.50
2019-03-25T03:11:59.403Z,5.50
2019-03-25T03:12:35.344Z,5.50
2019-03-25T03:13:11.349Z,5.50
2019-03-25T03:13:47.250Z,5.60
2019-03-25T03:14:23.309Z,5.50
2019-03-25T03:14:59.563Z,5.50
2019-03-25T03:15:35.852Z,5.50
2019-03-25T03:16:11.804Z,5.50
2019-03-25T03:16:47.755Z,5.50
2019-03-25T03:17:23.705Z,5.50
2019-03-25T03:17:59.986Z,5.50
2019-03-25T03:18:36.124Z,5.50
2019-03-25T03:19:12.407Z,5.50
2019-03-25T03:19:48.820Z,5.50
2019-03-25T03:20:24.900Z,5.50
2019-03-25T03:21:01.501Z,5.50
2019-03-25T03:21:37.604Z,5.50
2019-03-25T03:22:13.505Z,5.50
2019-03-25T03:22:49.638Z,5.60
2019-03-25T03:23:25.620Z,5.60
2019-03-25T03:24:02.012Z,5.60
2019-03-25T03:24:38.198Z,5.50
2019-03-25T03:25:14.300Z,5.50
2019-03-25T03:25:57.168Z,5.50
2019-03-25T03:26:28.250Z,5.40
2019-03-25T03:27:04.723Z,5.40
2019-03-25T03:27:40.982Z,5.40
2019-03-25T03:28:17.084Z,5.40
2019-03-25T03:28:53.390Z,5.40
2019-03-25T03:29:29.680Z,5.40
2019-03-25T03:30:05.866Z,5.30
2019-03-25T03:30:42.187Z,5.30
2019-03-25T03:31:18.246Z,5.30
2019-03-25T03:31:54.799Z,5.40
2019-03-25T03:32:30.994Z,5.30
2019-03-25T03:33:07.120Z,5.30
2019-03-25T03:33:43.284Z,5.30
2019-03-25T03:34:19.486Z,5.30
2019-03-25T03:34:55.578Z,5.30
2019-03-25T03:35:31.579Z,5.30
2019-03-25T03:36:07.699Z,5.30
2019-03-25T03:36:44.078Z,5.30
2019-03-25T03:37:20.212Z,5.30
2019-03-25T03:37:56.180Z,5.30
2019-03-25T03:38:32.352Z,5.20
2019-03-25T03:39:09.147Z,5.30
2019-03-25T03:39:45.363Z,5.20
2019-03-25T03:40:21.424Z,5.20
2019-03-25T03:40:57.566Z,5.20
2019-03-25T03:41:33.846Z,5.20
2019-03-25T03:42:10.099Z,5.20
2019-03-25T03:42:46.562Z,5.30
2019-03-25T03:43:22.631Z,5.30
2019-03-25T03:44:00.591Z,5.30
2019-03-25T03:44:36.570Z,5.20
2019-03-25T03:45:12.729Z,5.20
2019-03-25T03:45:49.017Z,5.20
2019-03-25T03:46:25.214Z,5.20
2019-03-25T03:47:01.309Z,5.20
2019-03-25T03:47:37.264Z,5.20
2019-03-25T03:48:13.621Z,5.20
2019-03-25T03:48:49.661Z,5.20
2019-03-25T03:49:25.923Z,5.30
2019-03-25T03:50:02.078Z,5.30
2019-03-25T03:50:38.491Z,5.30
2019-03-25T03:51:14.618Z,5.30
2019-03-25T03:51:50.900Z,5.30
2019-03-25T03:52:27.018Z,5.30
2019-03-25T03:53:03.319Z,5.20
2019-03-25T03:53:39.686Z,5.20
2019-03-25T03:54:16.278Z,5.10
2019-03-25T03:54:52.925Z,5.20
2019-03-25T03:55:30.370Z,5.20
2019-03-25T03:56:13.469Z,5.20
2019-03-25T03:56:44.528Z,5.20
2019-03-25T03:57:21.919Z,5.20
2019-03-25T03:57:59.121Z,5.20
2019-03-25T03:58:36.161Z,5.20
2019-03-25T03:59:12.347Z,5.30
2019-03-25T03:59:48.583Z,5.30
2019-03-25T04:00:30.935Z,5.30
2019-03-25T04:01:07.122Z,5.30
2019-03-25T04:01:43.150Z,5.30
2019-03-25T04:02:19.184Z,5.30
2019-03-25T04:02:55.417Z,5.30
2019-03-25T04:03:31.653Z,5.20
2019-03-25T04:04:07.743Z,5.20
2019-03-25T04:04:43.863Z,5.20
2019-03-25T04:05:20.287Z,5.20
2019-03-25T04:05:56.426Z,5.20
2019-03-25T04:06:32.536Z,5.20
2019-03-25T04:07:08.630Z,5.20
2019-03-25T04:07:44.720Z,5.20
2019-03-25T04:08:20.848Z,5.20
2019-03-25T04:08:57.099Z,5.20
2019-03-25T04:09:33.350Z,5.20
2019-03-25T04:10:09.706Z,5.30
2019-03-25T04:10:46.226Z,5.30
2019-03-25T04:11:22.485Z,5.30
2019-03-25T04:11:58.402Z,5.30
2019-03-25T04:12:34.762Z,5.30
2019-03-25T04:13:10.867Z,5.30
2019-03-25T04:13:47.039Z,5.30
2019-03-25T04:14:23.064Z,5.30
2019-03-25T04:14:59.345Z,5.30
2019-03-25T04:15:35.656Z,5.40
2019-03-25T04:16:11.731Z,5.40
2019-03-25T04:16:47.847Z,5.40
2019-03-25T04:17:24.055Z,5.40
2019-03-25T04:18:00.842Z,5.40
2019-03-25T04:18:36.842Z,5.40
2019-03-25T04:19:12.866Z,5.40
2019-03-25T04:19:48.983Z,5.40
2019-03-25T04:20:25.200Z,5.50
2019-03-25T04:21:01.914Z,5.50
2019-03-25T04:21:37.815Z,5.50
2019-03-25T04:22:13.872Z,5.50
2019-03-25T04:22:50.103Z,5.50
2019-03-25T04:23:26.453Z,5.50
2019-03-25T04:24:02.393Z,5.50
2019-03-25T04:24:38.562Z,5.50
2019-03-25T04:25:14.603Z,5.50
2019-03-25T04:25:50.835Z,5.50
2019-03-25T04:26:29.052Z,5.50
2019-03-25T04:27:04.706Z,5.50
2019-03-25T04:27:40.963Z,5.50
2019-03-25T04:28:17.105Z,5.50
2019-03-25T04:28:53.077Z,5.50
2019-03-25T04:29:29.561Z,5.50
2019-03-25T04:30:06.450Z,5.50
2019-03-25T04:30:42.644Z,5.50
2019-03-25T04:31:18.806Z,5.50
2019-03-25T04:31:54.865Z,5.50
2019-03-25T04:32:31.015Z,5.50
2019-03-25T04:33:06.986Z,5.50
2019-03-25T04:33:43.141Z,5.50
2019-03-25T04:34:19.224Z,5.50
2019-03-25T04:34:55.481Z,5.50
2019-03-25T04:35:31.547Z,5.50
2019-03-25T04:36:07.707Z,5.50
2019-03-25T04:36:43.869Z,5.50
2019-03-25T04:37:20.047Z,5.50
2019-03-25T04:37:56.638Z,5.50
2019-03-25T04:38:32.991Z,5.50
2019-03-25T04:39:09.912Z,5.50
2019-03-25T04:39:46.047Z,5.50
2019-03-25T04:40:22.187Z,5.50
2019-03-25T04:40:58.308Z,5.50
2019-03-25T04:41:34.567Z,5.50
2019-03-25T04:42:10.784Z,5.50
2019-03-25T04:42:46.984Z,5.50
2019-03-25T04:43:23.046Z,5.50
2019-03-25T04:43:59.448Z,5.50
2019-03-25T04:44:35.440Z,5.50
2019-03-25T04:45:11.599Z,5.50
2019-03-25T04:45:47.985Z,5.50
2019-03-25T04:46:24.154Z,5.50
2019-03-25T04:47:00.363Z,5.50
2019-03-25T04:47:36.517Z,5.50
2019-03-25T04:48:12.699Z,5.40
2019-03-25T04:48:48.904Z,5.40
2019-03-25T04:49:24.783Z,5.40
2019-03-25T04:50:00.975Z,5.30
2019-03-25T04:50:37.251Z,5.30
2019-03-25T04:51:13.262Z,5.30
2019-03-25T04:51:49.470Z,5.30
2019-03-25T04:52:25.552Z,5.30
2019-03-25T04:53:01.598Z,5.30
2019-03-25T04:53:37.660Z,5.30
2019-03-25T04:54:13.620Z,5.30
2019-03-25T04:54:49.784Z,5.20
2019-03-25T04:55:25.844Z,5.20
2019-03-25T04:56:02.098Z,5.10
2019-03-25T04:56:39.903Z,5.10
2019-03-25T04:57:16.205Z,5.10
2019-03-25T04:57:52.268Z,5.10
2019-03-25T04:58:28.788Z,5.10
2019-03-25T04:59:05.569Z,5.00
2019-03-25T04:59:41.607Z,5.00
2019-03-25T05:00:22.899Z,5.10
2019-03-25T05:00:59.607Z,5.10
2019-03-25T05:01:35.769Z,5.10
2019-03-25T05:02:12.009Z,5.10
2019-03-25T05:02:48.043Z,5.10
2019-03-25T05:03:24.242Z,5.10
2019-03-25T05:04:00.637Z,5.10
2019-03-25T05:04:36.665Z,5.10
2019-03-25T05:05:12.777Z,5.20
2019-03-25T05:05:48.750Z,5.10
2019-03-25T05:06:24.803Z,5.20
2019-03-25T05:07:00.925Z,5.20
2019-03-25T05:07:37.028Z,5.20
2019-03-25T05:08:13.550Z,5.20
2019-03-25T05:08:49.788Z,5.20
2019-03-25T05:09:26.144Z,5.20
2019-03-25T05:10:02.271Z,5.20
2019-03-25T05:10:38.425Z,5.20
2019-03-25T05:11:14.666Z,5.20
2019-03-25T05:11:51.125Z,5.30
2019-03-25T05:12:27.267Z,5.30
2019-03-25T05:13:03.682Z,5.30
2019-03-25T05:13:40.179Z,5.30
2019-03-25T05:14:16.327Z,5.30
2019-03-25T05:14:52.594Z,5.30
2019-03-25T05:15:28.600Z,5.40
2019-03-25T05:16:04.623Z,5.30
2019-03-25T05:16:40.842Z,5.40
2019-03-25T05:17:17.102Z,5.40
2019-03-25T05:17:53.162Z,5.40
2019-03-25T05:18:29.202Z,5.40
2019-03-25T05:19:05.494Z,5.40
2019-03-25T05:19:41.826Z,5.40
2019-03-25T05:20:18.042Z,5.40
2019-03-25T05:20:54.138Z,5.50
2019-03-25T05:21:30.165Z,5.50
2019-03-25T05:22:06.433Z,5.50
2019-03-25T05:22:42.600Z,5.50
2019-03-25T05:23:18.716Z,5.50
2019-03-25T05:23:55.528Z,5.50
2019-03-25T05:24:31.970Z,5.50
2019-03-25T05:25:08.425Z,5.60
2019-03-25T05:25:44.843Z,5.60
2019-03-25T05:26:21.125Z,5.60
2019-03-25T05:26:57.145Z,5.60
2019-03-25T05:27:33.350Z,5.60
2019-03-25T05:28:09.404Z,5.60
2019-03-25T05:28:45.553Z,5.60
2019-03-25T05:29:21.802Z,5.70
2019-03-25T05:29:57.942Z,5.70
2019-03-25T05:30:34.153Z,5.70
2019-03-25T05:31:10.314Z,5.70
2019-03-25T05:31:46.563Z,5.70
2019-03-25T05:32:22.714Z,5.70
2019-03-25T05:32:58.903Z,5.80
2019-03-25T05:33:35.040Z,5.80
2019-03-25T05:34:11.123Z,5.80
2019-03-25T05:34:47.121Z,5.80
2019-03-25T05:35:23.424Z,5.90
2019-03-25T05:35:59.528Z,5.80
2019-03-25T05:36:35.691Z,5.90
2019-03-25T05:37:11.863Z,5.90
2019-03-25T05:37:48.081Z,5.90
2019-03-25T05:38:24.385Z,5.90
2019-03-25T05:39:00.605Z,5.90
2019-03-25T05:39:36.704Z,6.00
2019-03-25T05:40:13.198Z,6.00
2019-03-25T05:40:49.406Z,6.00
2019-03-25T05:41:25.703Z,6.00
2019-03-25T05:42:01.826Z,6.00
2019-03-25T05:42:37.827Z,6.10
2019-03-25T05:43:14.359Z,6.10
2019-03-25T05:43:50.421Z,6.10
2019-03-25T05:44:26.867Z,6.10
2019-03-25T05:45:03.190Z,6.10
2019-03-25T05:45:39.592Z,6.20
2019-03-25T05:46:16.164Z,6.20
2019-03-25T05:46:52.792Z,6.20
2019-03-25T05:47:29.236Z,6.20
2019-03-25T05:48:05.516Z,6.30
2019-03-25T05:48:41.880Z,6.30
2019-03-25T05:49:18.331Z,6.30
2019-03-25T05:49:54.737Z,6.30
2019-03-25T05:50:30.952Z,6.30
2019-03-25T05:51:07.165Z,6.30
2019-03-25T05:51:43.508Z,6.30
2019-03-25T05:52:20.053Z,6.30
2019-03-25T05:52:56.384Z,6.30
2019-03-25T05:53:32.912Z,6.30
2019-03-25T05:54:09.264Z,6.30
2019-03-25T05:54:45.637Z,6.30
2019-03-25T05:55:21.862Z,6.30
2019-03-25T05:55:58.077Z,6.30
2019-03-25T05:56:34.445Z,6.20
2019-03-25T05:57:10.693Z,6.20
2019-03-25T05:57:47.014Z,6.20
2019-03-25T05:58:23.468Z,6.20
2019-03-25T05:58:59.763Z,6.10
2019-03-25T05:59:35.869Z,6.10
2019-03-25T06:00:12.358Z,6.10
2019-03-25T06:00:48.790Z,6.10
2019-03-25T06:01:25.138Z,6.10
2019-03-25T06:02:01.361Z,6.10
2019-03-25T06:02:37.663Z,6.10
2019-03-25T06:03:14.125Z,6.00
2019-03-25T06:03:50.573Z,6.00
2019-03-25T06:04:27.259Z,6.10
2019-03-25T06:05:03.674Z,6.00
2019-03-25T06:05:40.227Z,6.10
2019-03-25T06:06:16.719Z,6.00
2019-03-25T06:06:52.836Z,6.10
2019-03-25T06:07:29.198Z,6.00
2019-03-25T06:08:05.678Z,6.10
2019-03-25T06:08:42.183Z,6.10
2019-03-25T06:09:18.578Z,6.10
2019-03-25T06:09:54.821Z,6.10
2019-03-25T06:10:31.335Z,6.10
2019-03-25T06:11:07.625Z,6.10
2019-03-25T06:11:43.788Z,6.10
2019-03-25T06:12:20.143Z,6.10
2019-03-25T06:12:56.470Z,6.10
2019-03-25T06:13:32.858Z,6.10
2019-03-25T06:14:09.488Z,6.10
2019-03-25T06:14:45.941Z,6.00
2019-03-25T06:15:22.330Z,6.10
2019-03-25T06:15:58.828Z,6.10
2019-03-25T06:16:35.316Z,6.10
2019-03-25T06:17:11.672Z,6.10
2019-03-25T06:17:47.731Z,6.20
2019-03-25T06:18:23.803Z,6.20
2019-03-25T06:19:00.198Z,6.20
2019-03-25T06:19:36.544Z,6.20
2019-03-25T06:20:13.804Z,6.20
2019-03-25T06:20:50.049Z,6.20
2019-03-25T06:21:26.440Z,6.20
2019-03-25T06:22:02.815Z,6.30
2019-03-25T06:22:39.521Z,6.30
2019-03-25T06:23:15.902Z,6.30
2019-03-25T06:23:52.276Z,6.30
2019-03-25T06:24:28.818Z,6.40
2019-03-25T06:25:05.233Z,6.40
2019-03-25T06:25:41.630Z,6.40
2019-03-25T06:26:18.137Z,6.40
2019-03-25T06:26:54.298Z,6.40
2019-03-25T06:27:30.903Z,6.40
2019-03-25T06:28:07.217Z,6.40
2019-03-25T06:28:43.686Z,6.40
2019-03-25T06:29:20.436Z,6.40
2019-03-25T06:29:56.545Z,6.40
2019-03-25T06:30:33.166Z,6.40
2019-03-25T06:31:09.494Z,6.40
2019-03-25T06:31:45.779Z,6.40
2019-03-25T06:32:21.863Z,6.40
2019-03-25T06:32:58.220Z,6.40
2019-03-25T06:33:34.589Z,6.50
2019-03-25T06:34:10.988Z,6.50
2019-03-25T06:34:47.121Z,6.50
2019-03-25T06:35:23.377Z,6.50
2019-03-25T06:35:59.718Z,6.50
2019-03-25T06:36:35.995Z,6.50
2019-03-25T06:37:12.545Z,6.60
2019-03-25T06:37:49.195Z,6.60
2019-03-25T06:38:25.696Z,6.60
2019-03-25T06:39:02.461Z,6.60
2019-03-25T06:39:38.696Z,6.70
2019-03-25T06:40:15.498Z,6.70
2019-03-25T06:40:51.980Z,6.70
2019-03-25T06:41:28.447Z,6.80
2019-03-25T06:42:04.882Z,6.80
2019-03-25T06:42:41.065Z,6.80
2019-03-25T06:43:17.346Z,6.80
2019-03-25T06:43:53.734Z,6.80
2019-03-25T06:44:30.235Z,6.80
2019-03-25T06:45:06.764Z,6.90
2019-03-25T06:45:43.284Z,6.90
2019-03-25T06:46:22.097Z,6.90
2019-03-25T06:46:57.510Z,6.90
2019-03-25T06:47:34.053Z,6.90
2019-03-25T06:48:10.445Z,7.00
2019-03-25T06:48:46.741Z,6.90
2019-03-25T06:49:23.120Z,6.90
2019-03-25T06:49:59.476Z,6.90
2019-03-25T06:50:35.875Z,6.90
2019-03-25T06:51:12.613Z,6.90
2019-03-25T06:51:48.713Z,6.90
2019-03-25T06:52:25.014Z,6.90
2019-03-25T06:53:01.456Z,6.90
2019-03-25T06:53:37.971Z,6.90
2019-03-25T06:54:14.325Z,6.90
2019-03-25T06:54:50.732Z,7.00
2019-03-25T06:55:26.835Z,7.00
2019-03-25T06:56:03.159Z,7.00
2019-03-25T06:56:39.537Z,7.10
2019-03-25T06:57:25.150Z,7.10
2019-03-25T06:57:53.734Z,7.10
2019-03-25T06:58:30.172Z,7.10
2019-03-25T06:59:06.516Z,7.20
2019-03-25T06:59:42.770Z,7.20
2019-03-25T07:00:19.476Z,7.20
2019-03-25T07:00:55.705Z,7.30
2019-03-25T07:01:32.053Z,7.30
2019-03-25T07:02:08.242Z,7.30
2019-03-25T07:02:44.555Z,7.30
2019-03-25T07:03:21.063Z,7.30
2019-03-25T07:03:57.403Z,7.40
2019-03-25T07:04:33.671Z,7.40
2019-03-25T07:05:10.306Z,7.40
2019-03-25T07:05:46.487Z,7.50
2019-03-25T07:06:22.807Z,7.60
2019-03-25T07:06:59.088Z,7.60
2019-03-25T07:07:35.568Z,7.70
2019-03-25T07:08:12.047Z,7.90
2019-03-25T07:08:48.322Z,8.00
2019-03-25T07:09:24.767Z,8.10
2019-03-25T07:10:01.056Z,8.20
2019-03-25T07:10:38.047Z,8.20
2019-03-25T07:11:14.573Z,8.20
2019-03-25T07:11:51.351Z,8.20
2019-03-25T07:12:27.688Z,8.20
2019-03-25T07:13:04.583Z,8.20
2019-03-25T07:13:41.067Z,8.20
2019-03-25T07:14:18.093Z,8.30
2019-03-25T07:14:54.747Z,8.30
2019-03-25T07:15:31.464Z,8.30
2019-03-25T07:16:07.931Z,8.30
2019-03-25T07:16:44.359Z,8.30
2019-03-25T07:17:20.789Z,8.30
2019-03-25T07:17:57.160Z,8.20
2019-03-25T07:18:33.470Z,8.20
2019-03-25T07:19:09.967Z,8.20
2019-03-25T07:19:46.310Z,8.30
2019-03-25T07:20:22.828Z,8.40
2019-03-25T07:20:58.985Z,8.60
2019-03-25T07:21:35.216Z,8.80
2019-03-25T07:22:11.667Z,8.80
2019-03-25T07:22:48.098Z,8.80
2019-03-25T07:23:24.576Z,8.70
2019-03-25T07:24:01.039Z,8.70
2019-03-25T07:24:37.494Z,8.80
2019-03-25T07:25:13.858Z,8.80
2019-03-25T07:25:50.622Z,8.80
2019-03-25T07:26:26.845Z,8.90
2019-03-25T07:27:03.028Z,8.90
2019-03-25T07:27:39.533Z,8.90
2019-03-25T07:28:16.644Z,8.80
2019-03-25T07:28:53.164Z,8.80
2019-03-25T07:29:29.389Z,8.90
2019-03-25T07:30:06.607Z,8.90
2019-03-25T07:30:42.957Z,8.90
2019-03-25T07:31:19.372Z,8.90
2019-03-25T07:31:56.117Z,8.90
2019-03-25T07:32:32.626Z,8.90
2019-03-25T07:33:09.105Z,8.90
2019-03-25T07:33:45.618Z,8.90
2019-03-25T07:34:21.882Z,8.80
2019-03-25T07:34:58.149Z,8.80
2019-03-25T07:35:34.641Z,8.70
2019-03-25T07:36:10.966Z,8.80
2019-03-25T07:36:47.304Z,8.70
2019-03-25T07:37:23.889Z,8.60
2019-03-25T07:38:00.301Z,8.70
2019-03-25T07:38:36.859Z,8.60
2019-03-25T07:39:13.010Z,8.60
2019-03-25T07:39:49.482Z,8.60
2019-03-25T07:40:25.888Z,8.60
2019-03-25T07:41:02.136Z,8.80
2019-03-25T07:41:38.664Z,8.90
2019-03-25T07:42:14.877Z,9.20
2019-03-25T07:42:51.663Z,9.50
2019-03-25T07:43:28.374Z,9.90
2019-03-25T07:44:04.829Z,10.20
2019-03-25T07:44:41.262Z,10.50
2019-03-25T07:45:17.878Z,10.70
2019-03-25T07:45:54.377Z,10.80
2019-03-25T07:46:30.760Z,11.00
2019-03-25T07:47:07.817Z,11.20
2019-03-25T07:47:44.115Z,11.40
2019-03-25T07:48:20.683Z,11.40
2019-03-25T07:48:56.971Z,11.50
2019-03-25T07:49:33.142Z,11.60
2019-03-25T07:50:10.684Z,11.90
2019-03-25T07:50:47.222Z,12.00
2019-03-25T07:51:23.694Z,12.00
2019-03-25T07:52:00.232Z,11.80
2019-03-25T07:52:36.834Z,11.80
2019-03-25T07:53:13.557Z,11.90
2019-03-25T07:53:51.135Z,12.00
2019-03-25T07:54:27.535Z,12.10
2019-03-25T07:55:04.211Z,12.10
2019-03-25T07:55:40.820Z,12.10
2019-03-25T07:56:17.354Z,12.30
2019-03-25T07:56:53.850Z,12.50
2019-03-25T07:57:30.359Z,12.80
2019-03-25T07:58:07.122Z,13.00
2019-03-25T07:58:43.876Z,12.90
2019-03-25T07:59:20.380Z,13.10
2019-03-25T07:59:56.767Z,13.00
2019-03-25T08:00:33.288Z,13.10
2019-03-25T08:01:09.607Z,13.30
2019-03-25T08:01:46.030Z,13.50
2019-03-25T08:02:23.002Z,13.70
2019-03-25T08:02:59.387Z,13.80
2019-03-25T08:03:35.699Z,13.70